Flight Track Log - Related Links

Times and Time Zones

All times are in EDT time to prevent confusion due to time zone crossing. See the UAL256 flight status page for this flight to view local times or setup timezone preferences in your user account.

Time Position Orientation Groundspeed Altitude Reporting Facility
EDT Latitude Longitude Course Direction KTS MPH feet Rate Location/Type
Fri 09:15:34 PM 39.8833 -104.6000 57° Northeast 172 198 6,500  Level Denver TRACON
Fri 09:16:28 PM 39.8833 -104.5333 90° East 231 266 8,100 2,053 Climbing Denver TRACON
Fri 09:17:28 PM 39.9167 -104.4333 66° East 284 327 10,400 1,768 Climbing Denver TRACON
Fri 09:18:00 PM 39.9571 -104.0788 66° East  Level FlightAware Approximate
Fri 09:18:20 PM 39.9253 -104.3686 80° East 303 349 11,400  Level Denver Center
Fri 09:19:00 PM 39.9836 -103.9315 79° East  Level FlightAware Approximate
Fri 09:19:22 PM 39.9575 -104.2194 74° East 349 402 14,800  Level Denver Center
Fri 09:20:00 PM 40.0078 -103.7845 57° Northeast  Level FlightAware Approximate
Fri 09:20:24 PM 39.9808 -104.0767 78° East 377 434 17,300  Level Denver Center
Fri 09:21:25 PM 39.9922 -103.9689 82° East 390 449 19,100 2,488 Climbing Denver Center
Fri 09:22:27 PM 40.0178 -103.7858 80° East 397 457 22,400 2,371 Climbing Denver Center
Fri 09:23:29 PM 40.0397 -103.6600 77° East 382 440 24,000 1,561 Climbing Denver Center
Fri 09:24:30 PM 40.0589 -103.5353 79° East 409 471 25,600 1,935 Climbing Denver Center
Fri 09:25:33 PM 40.0919 -103.3361 78° East 418 481 28,000 1,872 Climbing Denver Center
Fri 09:26:35 PM 40.1167 -103.1831 78° East 428 493 29,500 1,366 Climbing Denver Center
Fri 09:27:36 PM 40.1408 -103.0272 78° East 431 496 30,800 1,415 Climbing Denver Center
Fri 09:28:38 PM 40.1658 -102.8692 78° East 439 505 32,400 1,742 Climbing Denver Center
Fri 09:29:40 PM 40.1903 -102.7119 78° East 437 503 34,400 1,210 Climbing Denver Center
Fri 09:30:42 PM 40.2139 -102.5594 78° East 428 493 34,900 919 Climbing Denver Center
Fri 09:31:44 PM 40.2406 -102.3831 79° East 440 506 36,300 1,210 Climbing Denver Center
Fri 09:32:46 PM 40.2639 -102.2361 78° East 432 497 37,400 871 Climbing Denver Center
Fri 09:33:48 PM 40.2892 -102.0625 79° East 434 499 38,100 537 Climbing Denver Center
Fri 09:34:49 PM 40.3078 -101.9378 79° East 438 504 38,500 435 Climbing Denver Center
Fri 09:35:52 PM 40.3342 -101.7603 79° East 446 513 39,000 240 Climbing Denver Center
Fri 09:36:54 PM 40.3600 -101.5819 79° East 448 516 39,000  Level Denver Center
Fri 09:37:56 PM 40.3819 -101.4311 79° East 443 510 39,000  Level Denver Center
Fri 09:38:58 PM 40.4075 -101.2531 79° East 446 513 39,000  Level Denver Center
Fri 09:40:00 PM 40.4283 -101.1014 80° East 444 511 39,000  Level Denver Center
Fri 09:41:01 PM 40.4519 -100.9497 78° East 446 513 39,000 48 Level Denver Center
Fri 09:42:04 PM 40.5064 -100.7819 67° East 450 518 39,100  Climbing Denver Center
Fri 09:43:06 PM 40.5667 -100.6203 64° Northeast 445 512 39,000 -48 Descending Denver Center
Fri 09:44:08 PM 40.6275 -100.4583 64° Northeast 448 516 39,000  Level Denver Center
Fri 09:45:22 PM 40.6789 -100.3175 64° Northeast 449 517 39,000  Level Denver Center
Fri 09:46:24 PM 40.7467 -100.1311 64° Northeast 445 512 39,000  Level Denver Center
Fri 09:47:26 PM 40.7972 -99.9903 65° Northeast 446 513 39,000  Level Denver Center
Fri 09:48:28 PM 40.8594 -99.8214 64° Northeast 443 510 39,000  Level Denver Center
Fri 09:49:31 PM 40.9128 -99.6728 65° Northeast 446 513 39,000  Level Denver Center
Fri 09:50:33 PM 40.9664 -99.5233 65° Northeast 449 517 39,000  Level Denver Center
Fri 09:51:35 PM 41.0200 -99.3725 65° Northeast 451 519 39,000  Level Denver Center
Fri 09:52:37 PM 41.0744 -99.2206 65° Northeast 454 522 39,000  Level Denver Center
Fri 09:53:25 PM 41.1175 -99.0986 65° Northeast 455 524 39,000  Level Minneapolis Center
Fri 09:54:26 PM 41.1714 -98.9467 65° Northeast 457 526 39,000  Level Minneapolis Center
Fri 09:54:41 PM 41.1906 -98.8878 67° East 459 528 39,000  Level Denver Center
Fri 09:55:40 PM 41.2253 -98.7911 64° Northeast 460 529 39,000  Level Minneapolis Center
Fri 09:56:41 PM 41.2892 -98.6081 65° Northeast 457 526 39,000  Level Minneapolis Center
Fri 09:57:43 PM 41.3450 -98.4419 66° East 453 521 39,000  Level Minneapolis Center
Fri 09:58:44 PM 41.3889 -98.2842 70° East 453 521 39,000 -98 Level Minneapolis Center
Fri 09:59:46 PM 41.4186 -98.1011 78° East 456 525 38,800 -585 Descending Minneapolis Center
Fri 10:00:47 PM 41.4458 -97.9364 78° East 456 525 37,800 -885 Descending Minneapolis Center
Fri 10:01:48 PM 41.4739 -97.7728 77° East 453 521 37,000 -390 Descending Minneapolis Center
Fri 10:02:50 PM 41.5006 -97.6103 78° East 450 518 37,000  Level Minneapolis Center
Fri 10:03:51 PM 41.5269 -97.4483 78° East 447 514 37,000  Level Minneapolis Center
Fri 10:04:53 PM 41.5519 -97.2894 78° East 440 506 37,000  Level Minneapolis Center
Fri 10:05:54 PM 41.5781 -97.1303 78° East 438 504 37,000  Level Minneapolis Center
Fri 10:06:56 PM 41.6028 -96.9706 78° East 439 505 37,000  Level Minneapolis Center
Fri 10:08:09 PM 41.6328 -96.7758 78° East 443 510 37,000  Level Minneapolis Center
Fri 10:09:11 PM 41.6622 -96.5806 79° East 445 512 37,000  Level Minneapolis Center
Fri 10:10:12 PM 41.6831 -96.4492 78° East 446 513 37,000  Level Minneapolis Center
Fri 10:11:25 PM 41.7133 -96.2508 78° East 450 518 37,000  Level Minneapolis Center
Fri 10:12:27 PM 41.7425 -96.0511 79° East 450 518 37,000  Level Minneapolis Center
Fri 10:13:29 PM 41.7664 -95.8850 79° East 450 518 37,000  Level Minneapolis Center
Fri 10:14:30 PM 41.7903 -95.7192 79° East 451 519 37,000  Level Minneapolis Center
Fri 10:15:31 PM 41.8147 -95.5525 79° East 453 521 37,000  Level Minneapolis Center
Fri 10:16:33 PM 41.8386 -95.3861 79° East 454 522 37,000  Level Minneapolis Center
Fri 10:17:34 PM 41.8622 -95.2181 79° East 456 525 37,000  Level Minneapolis Center
Fri 10:18:35 PM 41.8806 -95.0836 80° East 457 526 37,000 -49 Level Minneapolis Center
Fri 10:19:37 PM 41.9069 -94.8842 80° East 453 521 36,900  Descending Minneapolis Center
Fri 10:20:38 PM 41.9353 -94.6831 79° East 455 524 37,000 49 Climbing Minneapolis Center
Fri 10:21:40 PM 41.9572 -94.5144 80° East 458 527 37,000 49 Level Minneapolis Center
Fri 10:22:41 PM 41.9800 -94.3444 80° East 461 531 37,100  Climbing Minneapolis Center
Fri 10:23:43 PM 42.0033 -94.1736 80° East 463 533 37,000 -49 Descending Minneapolis Center
Fri 10:24:44 PM 42.0264 -94.0069 79° East 458 527 37,000  Level Minneapolis Center
Fri 10:25:45 PM 42.0447 -93.8511 81° East 458 527 37,000  Level Minneapolis Center
Fri 10:26:59 PM 42.0703 -93.6517 80° East 458 527 37,000  Level Minneapolis Center
Fri 10:28:00 PM 42.0961 -93.4497 80° East 461 531 37,000  Level Minneapolis Center
Fri 10:29:02 PM 42.1167 -93.2814 81° East 461 531 37,000  Level Minneapolis Center
Fri 10:30:03 PM 42.1375 -93.1111 81° East 463 533 37,000  Level Minneapolis Center
Fri 10:31:04 PM 42.1572 -92.9422 81° East 463 533 37,000  Level Minneapolis Center
Fri 10:32:06 PM 42.1781 -92.7714 81° East 464 534 37,000 -439 Level Minneapolis Center
Fri 10:33:07 PM 42.2022 -92.5672 81° East 465 535 36,100 -1,463 Descending Minneapolis Center
Fri 10:34:09 PM 42.2217 -92.4000 81° East 461 531 34,000 -1,561 Descending Minneapolis Center
Fri 10:35:10 PM 42.2361 -92.2672 82° East 458 527 32,900 -1,377 Descending Minneapolis Center
Fri 10:36:11 PM 42.2597 -92.0608 81° East 464 534 31,200 -1,140 Descending Minneapolis Center
Fri 10:36:50 PM 42.2714 -91.9542 82° East 474 545 31,000 -120 Descending Chicago Center
Fri 10:37:51 PM 42.2897 -91.7856 82° East 464 534 31,000  Level Chicago Center
Fri 10:38:52 PM 42.3117 -91.5819 82° East 463 533 31,000 -49 Level Chicago Center
Fri 10:39:54 PM 42.3294 -91.4136 82° East 462 532 30,900 -927 Descending Chicago Center
Fri 10:40:55 PM 42.3467 -91.2467 82° East 456 525 29,100 -1,820 Descending Chicago Center
Fri 10:41:56 PM 42.3633 -91.0856 82° East 444 511 27,200 -1,024 Descending Chicago Center
Fri 10:42:58 PM 42.3814 -90.9061 82° East 435 501 27,000 -98 Descending Chicago Center
Fri 10:43:59 PM 42.3950 -90.7686 82° East 432 497 27,000 -541 Level Chicago Center
Fri 10:45:00 PM 42.4139 -90.5808 82° East 425 489 25,900 -1,024 Descending Chicago Center
Fri 10:46:02 PM 42.4228 -90.4233 86° East 427 491 24,900 -927 Descending Chicago Center
Fri 10:47:03 PM 42.4200 -90.2578 91° East 445 512 24,000 -443 Descending Chicago Center
Fri 10:48:04 PM 42.4172 -90.0950 91° East 440 506 24,000  Level Chicago Center
Fri 10:49:05 PM 42.4144 -89.9039 91° East 440 506 24,000 -878 Level Chicago Center
Fri 10:50:07 PM 42.4097 -89.7403 92° East 438 504 22,200 -1,805 Descending Chicago Center
Fri 10:51:08 PM 42.4067 -89.5806 91° East 429 494 20,300 -1,869 Descending Chicago Center
Fri 10:52:09 PM 42.4022 -89.4228 92° East 421 484 18,400 -1,721 Descending Chicago Center
Fri 10:53:10 PM 42.3978 -89.2717 92° East 407 468 16,800 -1,721 Descending Chicago Center
Fri 10:54:11 PM 42.3947 -89.1253 92° East 393 452 14,900 -1,869 Descending Chicago Center
Fri 10:55:12 PM 42.3903 -88.9836 92° East 380 437 13,000 -1,770 Descending Chicago Center
Fri 10:56:13 PM 42.3856 -88.8514 93° East 357 411 11,300 -1,328 Descending Chicago Center
Fri 10:57:14 PM 42.3817 -88.7303 92° East 328 377 10,300 -927 Descending Chicago Center
Fri 10:58:16 PM 42.3783 -88.6211 92° East 299 344 9,400 -634 Descending Chicago Center
Fri 10:59:17 PM 42.3706 -88.4942 95° East 292 336 9,000 -295 Descending Chicago Center
Fri 11:00:18 PM 42.3444 -88.3897 109° East 293 337 8,800 -787 Descending Chicago Center
Fri 11:01:19 PM 42.3153 -88.3011 114° Southeast 293 337 7,400 -885 Descending Chicago Center
Fri 11:02:20 PM 42.2578 -88.2397 142° Southeast 268 308 7,000 -492 Descending Chicago Center
Fri 11:03:21 PM 42.2100 -88.1808 138° Southeast 241 277 6,400 -984 Descending Chicago Center
Fri 11:04:22 PM 42.1622 -88.1286 141° Southeast 227 261 5,000 -1,385 Descending Chicago Center
Fri 11:05:18 PM 42.1167 -88.0667 135° Southeast 225 259 3,700 -1,393 Descending Chicago TRACON

Login

Don't have an account? Register now (free) for customized features, flight alerts, and more!